Active alerts

Hennepin
  Details for Hennepin Winter Storm Warning


weather webcam more information weather webcam


Thunder radar more information blitzortung!


Rain radar more information rain snow radar


Visit our other weather sites:

Template documentation
and downloads

And another site


Nearby METAR Reports

   
EBBR - Brussels International Airport, Belgium
Distance from station: W 9 mi
Updated: Feb 25 2018 12:50 am
Clear  
Clear  
   Wind: East 10.4 mph
Wind: East 10.4 mph
Temperature: 24.8°F
Wind Chill: 15.8°F
Dew Point: 14°F
Humidity: 63%
Barometer: 30.33 inHg
Visibility: More than 6 mi
Cloud details: Clear
EBBR 250650Z 08009KT CAVOK M04/M10 Q1027 NOSIG
EBBE - Beauvechain (Bevekom), Belgium
Distance from station: SSE 10 mi
Updated: Feb 25 2018 12:55 am
Clear  
Clear  
   Wind: ENE 12.7 mph
Wind: ENE 12.7 mph
Temperature: 23°F
Wind Chill: 10.4°F
Dew Point: 10.4°F
Humidity: 58%
Barometer: 30.3 inHg
Clouds: Clear
Visibility: More than 6 mi
Cloud details: Clear
EBBE 250655Z AUTO 07011KT 9999 NCD M05/M12 Q1026 BLU
EBDT - Schaffen, Belgium
Distance from station: ENE 18 mi
Updated: Feb 25 2018 12:55 am
Clear  
Clear  
   Wind: East 11.5 mph
Wind: East 11.5 mph
Temperature: 24.8°F
Wind Chill: 14°F
Dew Point: 10.4°F
Humidity: 54%
Barometer: 30.36 inHg
Clouds: Clear
Visibility: More than 6 mi
Cloud details: Clear
EBDT 250655Z AUTO 08010KT 9999 NCD M04/M12 Q1028 BLU
EBAW - Antwerp/Deurne, Belgium
Distance from station: NNW 23 mi
Updated: Feb 25 2018 12:50 am
Clear  
Clear  
   Wind: East 12.7 mph
Wind: East 12.7 mph
Temperature: 24.8°F
Wind Chill: 12.2°F
Dew Point: 12.2°F
Humidity: 59%
Barometer: 30.36 inHg
Visibility: More than 6 mi
Cloud details: Clear
EBAW 250650Z 08011KT CAVOK M04/M11 Q1028 NOSIG
EBCI - Charleroi/Gosselies, Belgium
Distance from station: SSW 32 mi
Updated: Feb 25 2018 12:50 am
Clear  
Clear  
   Wind: ENE 17.3 mph
Wind: ENE 17.3 mph
Temperature: 23°F
Wind Chill: 8.6°F
Dew Point: 10.4°F
Humidity: 58%
Barometer: 30.27 inHg
Visibility: More than 6 mi
Cloud details: Clear
EBCI 250650Z 06015KT CAVOK M05/M12 Q1025 NOSIG
EBLG - Bierset/Liege, Belgium
Distance from station: ESE 38 mi
Updated: Feb 25 2018 12:50 am
Clear  
Clear  
   Wind: East 11.5 mph
Wind: East 11.5 mph
Temperature: 21.2°F
Wind Chill: 8.6°F
Dew Point: 8.6°F
Humidity: 58%
Barometer: 30.3 inHg
Visibility: More than 6 mi
Cloud details: Clear
EBLG 250650Z 08010KT CAVOK M06/M13 Q1026 NOSIG

Script developed by  Saratoga-weather.org Adapted for the template by  Weerstation Leuven

You find our weather info also at:

Weather Underground

Midwestern Weather Network

Citizen Weather Observer Program (CWOP)

HAMweather, WeatherForYou, PWS Weather

Equipment we use:

Weather-station
Davis VP2

Weather-program
Cumulus

Davis VP2

Cumulus